Time;durP1;ratioP1;P1;durP2;ratioP2;P2;SDS_P1;SDS_P2;PMS_P1;PMS_P2;Temp;Humidity;BMP_temperature;BMP_pressure;BME280_temperature;BME280_humidity;BME280_pressure;Samples;Min_cycle;Max_cycle;Signal;HPM_P1;HPM_P2
2023/08/17 00:07:21;;;;;;;3.10;1.13;;;21.90;99.90;;;;;;20997986;28;20235;-69
2023/08/17 00:17:23;;;;;;;2.33;1.30;;;21.90;99.90;;;;;;20997676;28;20231;-73
2023/08/17 00:27:25;;;;;;;3.03;1.10;;;21.90;99.90;;;;;;21008659;28;20198;-74
2023/08/17 00:37:27;;;;;;;3.40;1.63;;;21.90;99.90;;;;;;21031611;28;20239;-74
2023/08/17 00:47:29;;;;;;;1.30;1.20;;;21.80;99.90;;;;;;20996244;28;20290;-71
2023/08/17 00:57:32;;;;;;;1.77;1.20;;;21.80;99.90;;;;;;20995397;28;20270;-74
2023/08/17 01:07:34;;;;;;;4.17;1.30;;;21.60;99.90;;;;;;20995113;28;20234;-74
2023/08/17 01:17:57;;;;;;;3.77;1.57;;;21.60;99.90;;;;;;20994773;28;20242;-74
2023/08/17 01:27:59;;;;;;;2.37;1.10;;;21.70;99.90;;;;;;20994158;28;20686;-72
2023/08/17 01:38:07;;;;;;;2.53;1.33;;;21.60;99.90;;;;;;20993979;28;20238;-74
2023/08/17 01:48:08;;;;;;;5.63;1.70;;;21.60;99.90;;;;;;20994090;28;20290;-74
2023/08/17 01:58:10;;;;;;;5.37;1.73;;;21.50;99.90;;;;;;21013656;28;20312;-73
2023/08/17 02:08:12;;;;;;;2.23;1.47;;;21.30;99.90;;;;;;21013785;28;20322;-73
2023/08/17 02:18:14;;;;;;;3.20;1.70;;;21.30;99.90;;;;;;21007360;28;20314;-73
2023/08/17 02:28:16;;;;;;;2.13;1.40;;;21.30;99.90;;;;;;21006649;28;20297;-73
2023/08/17 02:38:18;;;;;;;2.33;1.57;;;21.20;99.90;;;;;;21005822;28;20235;-71
2023/08/17 02:48:19;;;;;;;3.03;1.83;;;21.10;99.90;;;;;;21005554;28;20651;-73
2023/08/17 02:58:21;;;;;;;3.20;2.00;;;21.00;99.90;;;;;;21004498;28;20736;-72
2023/08/17 03:08:23;;;;;;;3.63;1.63;;;20.90;99.90;;;;;;21003219;28;20231;-70
2023/08/17 03:18:24;;;;;;;4.07;2.10;;;21.00;99.90;;;;;;21002150;28;20235;-69
2023/08/17 03:28:27;;;;;;;5.13;2.20;;;20.90;99.90;;;;;;21001505;28;20210;-70
2023/08/17 03:38:29;;;;;;;6.70;2.00;;;21.00;99.90;;;;;;21000555;28;20235;-73
2023/08/17 03:48:30;;;;;;;3.93;2.03;;;20.90;99.90;;;;;;21000563;28;20210;-73
2023/08/17 03:58:34;;;;;;;4.33;2.17;;;20.90;99.90;;;;;;20998999;28;20318;-73
2023/08/17 04:08:37;;;;;;;9.17;3.00;;;20.90;99.90;;;;;;20998265;28;20235;-73
2023/08/17 04:18:39;;;;;;;7.73;3.10;;;20.70;99.90;;;;;;21013213;28;20280;-72
2023/08/17 04:28:41;;;;;;;7.97;2.53;;;20.60;99.90;;;;;;21005699;28;20634;-73
2023/08/17 04:38:42;;;;;;;8.33;2.67;;;20.60;99.90;;;;;;20996275;28;20277;-73
2023/08/17 04:48:44;;;;;;;7.20;3.27;;;20.60;99.90;;;;;;20996321;28;20204;-72
2023/08/17 04:58:46;;;;;;;3.70;2.60;;;20.60;99.90;;;;;;20997703;28;20266;-70
2023/08/17 05:08:47;;;;;;;7.93;2.90;;;20.60;99.90;;;;;;20998813;28;20233;-69
2023/08/17 05:18:49;;;;;;;8.63;3.20;;;20.60;99.90;;;;;;20994846;28;20239;-73
2023/08/17 05:28:51;;;;;;;6.27;3.30;;;20.70;99.90;;;;;;21017957;28;20202;-72
2023/08/17 05:38:52;;;;;;;9.77;5.10;;;20.80;99.90;;;;;;21082138;28;20240;-74
2023/08/17 05:48:54;;;;;;;6.07;3.50;;;20.90;99.90;;;;;;21093948;28;20281;-74
2023/08/17 05:58:56;;;;;;;7.90;2.90;;;21.00;99.90;;;;;;21092780;28;20230;-75
2023/08/17 06:08:58;;;;;;;6.83;3.30;;;21.00;99.90;;;;;;21048143;28;20235;-76
2023/08/17 06:18:59;;;;;;;11.43;3.17;;;21.30;99.90;;;;;;21007322;28;20243;-75
2023/08/17 06:29:01;;;;;;;6.00;3.40;;;21.40;99.90;;;;;;21006224;28;20606;-76
2023/08/17 06:39:05;;;;;;;9.33;3.47;;;21.60;99.90;;;;;;21047473;28;20974;-70
2023/08/17 06:49:08;;;;;;;10.27;5.70;;;21.70;99.90;;;;;;21088723;28;20213;-73
2023/08/17 06:59:10;;;;;;;5.53;2.90;;;21.90;99.90;;;;;;21086426;28;20325;-71
2023/08/17 07:09:12;;;;;;;6.47;2.50;;;22.10;99.90;;;;;;21054067;28;20622;-72
2023/08/17 07:19:14;;;;;;;4.47;2.67;;;22.20;99.90;;;;;;21047583;28;20313;-71
2023/08/17 07:29:16;;;;;;;3.60;3.20;;;22.50;99.90;;;;;;21084351;28;20213;-74
2023/08/17 07:39:18;;;;;;;3.60;2.70;;;22.60;99.90;;;;;;21085035;28;20287;-75
2023/08/17 07:49:23;;;;;;;4.00;2.93;;;22.80;99.90;;;;;;21008318;28;20264;-67
2023/08/17 07:59:44;;;;;;;6.80;3.13;;;23.00;99.90;;;;;;20924565;28;20305;-66
2023/08/17 08:09:46;;;;;;;7.90;3.40;;;23.20;99.90;;;;;;20959530;28;20255;-67
2023/08/17 08:19:50;;;;;;;5.77;3.83;;;23.40;99.90;;;;;;20997152;28;20270;-67
2023/08/17 08:29:52;;;;;;;9.23;4.43;;;23.50;99.90;;;;;;20996026;28;20207;-63
2023/08/17 08:39:55;;;;;;;7.83;3.70;;;23.70;99.90;;;;;;21023439;28;20613;-64
2023/08/17 08:50:02;;;;;;;9.57;4.30;;;23.90;99.90;;;;;;21079127;28;20203;-70
2023/08/17 09:00:05;;;;;;;12.13;4.27;;;24.10;99.90;;;;;;21076878;28;20226;-69
2023/08/17 09:10:08;;;;;;;7.10;3.70;;;24.30;99.90;;;;;;21030534;28;20231;-69
2023/08/17 09:20:11;;;;;;;5.30;4.17;;;24.50;99.90;;;;;;21011472;28;20317;-70
2023/08/17 09:30:13;;;;;;;8.37;5.00;;;24.70;99.90;;;;;;21010639;28;20207;-74
2023/08/17 09:40:19;;;;;;;12.63;9.40;;;24.80;99.90;;;;;;21009834;28;20270;-74
2023/08/17 09:50:23;;;;;;;11.73;5.20;;;24.90;99.90;;;;;;21009806;28;20204;-71
2023/08/17 10:00:27;;;;;;;10.13;7.40;;;25.00;99.90;;;;;;20998846;28;20237;-69
2023/08/17 10:10:34;;;;;;;20.47;5.70;;;25.10;99.90;;;;;;21008883;28;20234;-72
2023/08/17 10:20:40;;;;;;;13.57;6.43;;;25.40;99.90;;;;;;21006980;28;20231;-67
2023/08/17 10:30:43;;;;;;;10.07;5.60;;;25.60;99.90;;;;;;21005762;28;20707;-70
2023/08/17 10:41:05;;;;;;;8.10;6.07;;;25.80;99.90;;;;;;21004236;28;20234;-70
2023/08/17 10:51:12;;;;;;;9.43;5.70;;;25.90;99.90;;;;;;21057625;28;20646;-74
2023/08/17 11:01:30;;;;;;;8.00;5.63;;;26.00;99.90;;;;;;21087945;28;20233;-71
2023/08/17 11:11:32;;;;;;;9.90;5.95;;;26.20;99.90;;;;;;21086955;28;20647;-67
2023/08/17 11:21:33;;;;;;;15.60;6.17;;;26.40;99.90;;;;;;21084248;28;20234;-65
2023/08/17 11:31:35;;;;;;;9.52;5.50;;;26.50;99.90;;;;;;21085588;28;20211;-67
2023/08/17 11:41:37;;;;;;;7.60;5.82;;;26.60;99.90;;;;;;21062541;28;20253;-66
2023/08/17 11:51:40;;;;;;;6.75;5.45;;;26.80;99.50;;;;;;21003877;28;20773;-72
2023/08/17 12:01:44;;;;;;;6.68;5.50;;;27.00;98.90;;;;;;21082409;28;20234;-67
2023/08/17 12:11:46;;;;;;;11.27;5.38;;;27.30;98.40;;;;;;21081499;28;20292;-63
2023/08/17 12:21:48;;;;;;;7.03;5.60;;;27.60;98.00;;;;;;21080924;28;20314;-65
2023/08/17 12:31:52;;;;;;;6.78;5.50;;;28.00;97.60;;;;;;21077991;28;20657;-66
2023/08/17 12:41:53;;;;;;;8.23;5.90;;;28.20;96.80;;;;;;21078678;28;20234;-64
2023/08/17 12:51:55;;;;;;;6.03;5.43;;;28.40;95.80;;;;;;21079014;28;20242;-66
2023/08/17 13:01:57;;;;;;;11.73;5.90;;;28.50;95.30;;;;;;21079445;28;20276;-66
2023/08/17 13:11:59;;;;;;;8.57;6.07;;;28.70;94.30;;;;;;21078377;28;20235;-66
2023/08/17 13:22:02;;;;;;;7.80;5.43;;;28.90;93.70;;;;;;21077469;28;20607;-71
2023/08/17 13:32:04;;;;;;;8.77;5.10;;;29.10;92.70;;;;;;21077383;28;20732;-66
2023/08/17 13:42:06;;;;;;;7.30;5.20;;;29.10;92.50;;;;;;21058691;28;20596;-67
2023/08/17 13:52:08;;;;;;;8.65;4.97;;;29.20;92.10;;;;;;21077225;28;20202;-66
2023/08/17 14:02:10;;;;;;;9.18;4.68;;;29.30;91.70;;;;;;21085037;28;20237;-67
2023/08/17 14:12:11;;;;;;;6.55;4.70;;;30.00;90.60;;;;;;21091332;28;20767;-66
2023/08/17 14:22:13;;;;;;;5.00;4.20;;;31.10;86.50;;;;;;21052480;28;20241;-65
2023/08/17 14:32:15;;;;;;;4.70;4.20;;;30.80;84.30;;;;;;21006426;28;20588;-64
2023/08/17 14:42:16;;;;;;;4.63;4.10;;;30.10;84.20;;;;;;21005600;28;20270;-66
2023/08/17 14:52:18;;;;;;;5.75;4.53;;;29.50;85.40;;;;;;21005373;28;20203;-74
2023/08/17 15:02:20;;;;;;;12.50;5.20;;;29.10;85.90;;;;;;21004367;28;20241;-71
2023/08/17 15:12:22;;;;;;;5.95;4.80;;;28.70;86.40;;;;;;21002717;28;20272;-69
2023/08/17 15:22:25;;;;;;;6.05;4.70;;;28.50;88.10;;;;;;21002763;28;20249;-65
2023/08/17 15:32:27;;;;;;;12.25;4.75;;;28.30;89.90;;;;;;21001681;28;20291;-68
2023/08/17 15:42:29;;;;;;;6.03;4.70;;;28.10;90.60;;;;;;21000959;28;20676;-71
2023/08/17 15:52:30;;;;;;;13.73;5.10;;;28.00;91.10;;;;;;21050398;28;20242;-72
2023/08/17 16:02:32;;;;;;;6.72;4.47;;;28.00;91.50;;;;;;20999806;28;20245;-65
2023/08/17 16:12:34;;;;;;;11.35;3.25;;;28.00;91.70;;;;;;20998246;28;20764;-65
2023/08/17 16:22:36;;;;;;;6.10;3.42;;;27.70;90.50;;;;;;20996913;28;20242;-71
2023/08/17 16:32:37;;;;;;;7.20;3.03;;;27.00;87.10;;;;;;20997320;28;20509;-65
2023/08/17 16:42:39;;;;;;;6.53;2.83;;;26.70;85.70;;;;;;20996475;28;20253;-66
2023/08/17 16:52:41;;;;;;;7.60;3.45;;;26.40;85.30;;;;;;20996173;28;20211;-65
2023/08/17 17:02:43;;;;;;;5.17;3.20;;;26.30;85.40;;;;;;20995780;28;20596;-67
2023/08/17 17:12:44;;;;;;;5.57;3.00;;;26.10;85.30;;;;;;20995237;28;20231;-65
2023/08/17 17:22:46;;;;;;;5.60;3.13;;;26.00;85.50;;;;;;20995395;28;20261;-72
2023/08/17 17:32:48;;;;;;;4.63;3.27;;;25.90;86.00;;;;;;21077532;28;20206;-69
2023/08/17 17:42:50;;;;;;;6.40;3.37;;;25.80;86.60;;;;;;21093979;28;20670;-70
2023/08/17 17:52:51;;;;;;;5.60;3.10;;;25.70;87.10;;;;;;21093940;28;20806;-65
2023/08/17 18:02:53;;;;;;;7.33;3.47;;;25.50;87.60;;;;;;21092397;28;20322;-74
2023/08/17 18:12:55;;;;;;;5.37;3.13;;;25.30;89.00;;;;;;21091707;28;20359;-68
2023/08/17 18:22:57;;;;;;;6.47;3.23;;;25.30;89.70;;;;;;21088949;28;20321;-68
2023/08/17 18:32:59;;;;;;;5.77;3.50;;;25.20;90.20;;;;;;21062080;28;20559;-75
2023/08/17 18:43:01;;;;;;;6.57;3.53;;;25.10;90.60;;;;;;21029946;28;20716;-71
2023/08/17 18:53:03;;;;;;;8.73;3.90;;;25.10;90.90;;;;;;21002398;28;20215;-69
2023/08/17 19:03:05;;;;;;;6.57;3.00;;;25.00;91.40;;;;;;21002513;28;20238;-67
2023/08/17 19:13:07;;;;;;;5.30;3.10;;;25.00;91.50;;;;;;21033675;28;20333;-69
2023/08/17 19:23:08;;;;;;;5.83;3.40;;;24.90;91.50;;;;;;21084457;28;20252;-69
2023/08/17 19:33:10;;;;;;;4.63;2.77;;;24.80;91.50;;;;;;21066192;28;20667;-69
2023/08/17 19:43:12;;;;;;;5.87;2.70;;;24.60;91.50;;;;;;21059721;28;20300;-69
2023/08/17 19:53:14;;;;;;;6.87;3.53;;;24.60;91.50;;;;;;21081791;28;20305;-69
2023/08/17 20:03:15;;;;;;;5.43;3.13;;;24.50;91.50;;;;;;21080579;28;20236;-69
2023/08/17 20:13:17;;;;;;;6.83;3.60;;;24.40;91.70;;;;;;21081251;28;20234;-70
2023/08/17 20:23:19;;;;;;;7.27;4.80;;;24.40;91.90;;;;;;21080788;28;20222;-70
2023/08/17 20:33:21;;;;;;;4.87;4.00;;;24.20;92.30;;;;;;21063073;28;20653;-69
2023/08/17 20:43:23;;;;;;;5.90;3.90;;;24.10;93.00;;;;;;21079403;28;20240;-70
2023/08/17 20:53:25;;;;;;;5.40;4.40;;;24.00;93.80;;;;;;21077361;28;20565;-70
2023/08/17 21:03:26;;;;;;;8.07;4.60;;;24.00;94.30;;;;;;21076410;28;20267;-69
2023/08/17 21:13:29;;;;;;;8.33;4.87;;;24.00;94.90;;;;;;21057896;28;20660;-70
2023/08/17 21:23:31;;;;;;;5.57;4.43;;;23.90;95.60;;;;;;21077992;28;20642;-70
2023/08/17 21:33:32;;;;;;;8.97;5.20;;;23.90;96.20;;;;;;21078421;28;20674;-73
2023/08/17 21:43:34;;;;;;;7.00;4.70;;;23.80;96.70;;;;;;21077623;28;20266;-71
2023/08/17 21:53:36;;;;;;;6.73;3.80;;;23.70;97.10;;;;;;21077012;28;20205;-70
2023/08/17 22:03:38;;;;;;;6.43;4.20;;;23.60;97.40;;;;;;21076838;28;20594;-72
2023/08/17 22:13:40;;;;;;;8.50;4.07;;;23.40;97.50;;;;;;21076966;28;20640;-76
2023/08/17 22:23:41;;;;;;;4.90;3.57;;;23.30;97.70;;;;;;21053447;28;20242;-77
2023/08/17 22:33:43;;;;;;;6.33;3.97;;;23.20;97.90;;;;;;21006734;28;20300;-77
2023/08/17 22:43:45;;;;;;;5.30;4.33;;;23.10;98.00;;;;;;21006165;28;20235;-71
2023/08/17 22:53:46;;;;;;;6.43;4.20;;;23.10;98.30;;;;;;21005074;28;20204;-79
2023/08/17 23:03:48;;;;;;;6.20;3.70;;;23.00;98.50;;;;;;21004874;28;20299;-74
2023/08/17 23:13:50;;;;;;;6.30;3.90;;;22.90;99.00;;;;;;21004371;28;20243;-68
2023/08/17 23:23:52;;;;;;;5.27;4.00;;;22.90;99.00;;;;;;21002765;28;20727;-68
2023/08/17 23:33:53;;;;;;;5.77;3.77;;;22.70;99.20;;;;;;21001819;28;20209;-69
2023/08/17 23:43:55;;;;;;;5.23;4.07;;;22.50;99.50;;;;;;21001434;28;20231;-71
2023/08/17 23:53:57;;;;;;;6.03;4.20;;;22.50;99.80;;;;;;21029081;28;20258;-74
